createdAt,value
2017-11-16T00:00:40.777Z,8.1
2017-11-16T00:01:42.441Z,9.1
2017-11-16T00:02:44.045Z,9.5
2017-11-16T00:03:45.653Z,12.2
2017-11-16T00:04:47.276Z,8.9
2017-11-16T00:05:48.887Z,8.2
2017-11-16T00:06:50.514Z,11.8
2017-11-16T00:07:52.141Z,8.8
2017-11-16T00:08:53.816Z,8.5
2017-11-16T00:09:55.474Z,9.5
2017-11-16T00:10:57.052Z,8.4
2017-11-16T00:11:58.665Z,8.4
2017-11-16T00:13:00.278Z,8.7
2017-11-16T00:14:01.911Z,8.4
2017-11-16T00:15:03.506Z,11.0
2017-11-16T00:16:05.120Z,11.0
2017-11-16T00:17:06.745Z,8.6
2017-11-16T00:18:08.346Z,7.3
2017-11-16T00:19:09.958Z,8.2
2017-11-16T00:20:11.704Z,7.8
2017-11-16T00:21:13.296Z,8.3
2017-11-16T00:22:14.909Z,9.4
2017-11-16T00:23:16.523Z,7.9
2017-11-16T00:25:29.105Z,8.6
2017-11-16T00:26:30.805Z,9.7
2017-11-16T00:27:32.392Z,8.5
2017-11-16T00:28:33.995Z,7.5
2017-11-16T00:29:35.652Z,8.3
2017-11-16T00:30:37.265Z,8.4
2017-11-16T00:31:38.899Z,8.3
2017-11-16T00:32:40.647Z,7.7
2017-11-16T00:33:42.645Z,10.2
2017-11-16T00:34:44.261Z,9.0
2017-11-16T00:35:45.873Z,7.6
2017-11-16T00:36:47.485Z,8.3
2017-11-16T00:37:49.097Z,11.2
2017-11-16T00:38:50.716Z,9.2
2017-11-16T00:39:52.324Z,8.0
2017-11-16T00:40:53.936Z,9.6
2017-11-16T00:41:55.561Z,7.7
2017-11-16T00:42:57.170Z,8.6
2017-11-16T00:43:58.787Z,8.7
2017-11-16T00:45:00.401Z,8.2
2017-11-16T00:46:02.015Z,10.1
2017-11-16T00:47:03.640Z,7.6
2017-11-16T00:48:05.249Z,8.5
2017-11-16T00:49:06.855Z,7.7
2017-11-16T00:50:08.465Z,9.7
2017-11-16T00:51:10.077Z,8.1
2017-11-16T00:52:11.689Z,9.5
2017-11-16T00:53:13.329Z,9.5
2017-11-16T00:54:14.925Z,10.5
2017-11-16T00:55:16.533Z,11.1
2017-11-16T00:56:18.147Z,8.3
2017-11-16T00:57:19.757Z,7.9
2017-11-16T00:58:21.368Z,9.4
2017-11-16T00:59:22.999Z,9.1
2017-11-16T01:00:24.639Z,9.2
2017-11-16T01:01:26.254Z,10.1
2017-11-16T01:02:27.865Z,9.8
2017-11-16T01:03:29.479Z,11.0
2017-11-16T01:04:31.089Z,8.5
2017-11-16T01:05:32.722Z,8.9
2017-11-16T01:06:34.334Z,10.8
2017-11-16T01:07:35.961Z,10.6
2017-11-16T01:08:37.569Z,9.6
2017-11-16T01:09:39.198Z,9.6
2017-11-16T01:10:40.808Z,9.9
2017-11-16T01:11:42.432Z,11.4
2017-11-16T01:12:44.036Z,9.7
2017-11-16T01:13:45.648Z,9.4
2017-11-16T01:14:47.261Z,9.6
2017-11-16T01:15:48.871Z,9.8
2017-11-16T01:16:50.483Z,10.1
2017-11-16T01:17:52.095Z,10.3
2017-11-16T01:18:53.705Z,8.3
2017-11-16T01:19:55.317Z,9.4
2017-11-16T01:20:56.946Z,8.7
2017-11-16T01:21:58.558Z,9.3
2017-11-16T01:23:00.239Z,9.3
2017-11-16T01:24:01.817Z,10.4
2017-11-16T01:25:03.454Z,9.7
2017-11-16T01:26:05.065Z,10.5
2017-11-16T01:27:06.682Z,8.8
2017-11-16T01:28:08.293Z,12.1
2017-11-16T01:29:09.906Z,8.8
2017-11-16T01:30:11.518Z,10.4
2017-11-16T01:31:13.133Z,10.6
2017-11-16T01:32:14.754Z,10.5
2017-11-16T01:33:16.366Z,11.5
2017-11-16T01:34:17.976Z,9.9
2017-11-16T01:35:19.589Z,11.0
2017-11-16T01:36:21.202Z,10.8
2017-11-16T01:37:22.826Z,9.9
2017-11-16T01:38:24.437Z,12.2
2017-11-16T01:39:26.099Z,9.9
2017-11-16T01:40:27.692Z,10.0
2017-11-16T01:41:29.431Z,11.4
2017-11-16T01:42:31.047Z,10.5
2017-11-16T01:43:32.657Z,8.7
2017-11-16T01:44:34.275Z,9.7
2017-11-16T01:45:35.891Z,11.3
2017-11-16T01:46:37.521Z,10.8
2017-11-16T01:47:39.132Z,11.0
2017-11-16T01:48:41.087Z,11.3
2017-11-16T01:49:42.935Z,10.2
2017-11-16T01:50:44.546Z,10.8
2017-11-16T01:51:46.159Z,9.5
2017-11-16T01:52:47.769Z,10.9
2017-11-16T01:53:49.379Z,9.1
2017-11-16T01:54:50.994Z,12.3
2017-11-16T01:55:52.605Z,9.6
2017-11-16T01:56:54.216Z,10.0
2017-11-16T01:57:55.846Z,11.2
2017-11-16T01:58:57.455Z,12.9
2017-11-16T01:59:59.064Z,9.7
2017-11-16T02:01:00.674Z,10.6
2017-11-16T02:02:02.288Z,10.0
2017-11-16T02:03:03.903Z,11.1
2017-11-16T02:04:05.516Z,13.6
2017-11-16T02:05:07.135Z,12.3
2017-11-16T02:06:08.775Z,11.5
2017-11-16T02:07:10.386Z,9.6
2017-11-16T02:08:11.994Z,11.2
2017-11-16T02:09:13.607Z,12.3
2017-11-16T02:10:15.219Z,11.0
2017-11-16T02:11:16.827Z,11.8
2017-11-16T02:12:18.440Z,11.9
2017-11-16T02:13:20.055Z,11.2
2017-11-16T02:14:21.676Z,14.0
2017-11-16T02:15:23.284Z,11.8
2017-11-16T02:16:24.896Z,9.5
2017-11-16T02:17:26.506Z,10.5
2017-11-16T02:18:28.119Z,12.1
2017-11-16T02:19:29.732Z,14.0
2017-11-16T02:20:31.345Z,9.9
2017-11-16T02:21:32.959Z,13.6
2017-11-16T02:22:34.570Z,10.6
2017-11-16T02:23:36.182Z,10.9
2017-11-16T02:24:37.799Z,11.5
2017-11-16T02:25:39.404Z,11.7
2017-11-16T02:26:41.033Z,13.1
2017-11-16T02:27:42.640Z,12.1
2017-11-16T02:28:44.248Z,12.5
2017-11-16T02:29:45.859Z,16.9
2017-11-16T02:30:47.465Z,10.9
2017-11-16T02:31:49.087Z,11.8
2017-11-16T02:32:50.697Z,11.9
2017-11-16T02:33:52.312Z,14.1
2017-11-16T02:34:53.923Z,13.5
2017-11-16T02:35:55.533Z,10.5
2017-11-16T02:36:57.143Z,9.7
2017-11-16T02:37:58.756Z,10.1
2017-11-16T02:39:00.372Z,10.6
2017-11-16T02:40:01.984Z,10.7
2017-11-16T02:41:03.630Z,12.2
2017-11-16T02:42:05.224Z,11.0
2017-11-16T02:43:06.839Z,11.8
2017-11-16T02:44:08.449Z,11.9
2017-11-16T02:45:10.060Z,10.7
2017-11-16T02:46:11.673Z,13.3
2017-11-16T02:47:13.282Z,10.4
2017-11-16T02:48:14.895Z,12.6
2017-11-16T02:49:16.514Z,12.7
2017-11-16T02:50:18.114Z,11.0
2017-11-16T02:51:19.722Z,13.2
2017-11-16T02:52:21.345Z,12.6
2017-11-16T02:53:22.951Z,12.9
2017-11-16T02:54:24.564Z,10.3
2017-11-16T02:55:26.175Z,12.9
2017-11-16T02:56:27.792Z,13.1
2017-11-16T02:57:29.414Z,11.7
2017-11-16T02:58:31.029Z,13.0
2017-11-16T02:59:32.643Z,11.7
2017-11-16T03:00:34.254Z,12.8
2017-11-16T03:01:35.874Z,12.1
2017-11-16T03:02:37.491Z,11.6
2017-11-16T03:03:39.110Z,13.5
2017-11-16T03:04:40.712Z,12.3
2017-11-16T03:05:42.329Z,11.9
2017-11-16T03:06:43.938Z,12.1
2017-11-16T03:07:45.549Z,10.9
2017-11-16T03:08:47.159Z,10.0
2017-11-16T03:09:48.772Z,13.2
2017-11-16T03:10:50.383Z,12.0
2017-11-16T03:11:51.992Z,10.7
2017-11-16T03:12:53.604Z,10.1
2017-11-16T03:13:55.218Z,12.9
2017-11-16T03:14:56.832Z,13.2
2017-11-16T03:15:58.444Z,11.8
2017-11-16T03:17:00.056Z,12.3
2017-11-16T03:18:01.669Z,13.9
2017-11-16T03:19:03.282Z,15.0
2017-11-16T03:20:05.119Z,11.7
2017-11-16T03:21:06.754Z,9.7
2017-11-16T03:22:08.358Z,9.8
2017-11-16T03:23:09.972Z,13.3
2017-11-16T03:24:11.588Z,12.0
2017-11-16T03:25:13.200Z,12.8
2017-11-16T03:26:14.810Z,11.0
2017-11-16T03:27:16.551Z,14.0
2017-11-16T03:28:18.139Z,12.5
2017-11-16T03:29:19.754Z,12.9
2017-11-16T03:30:21.375Z,14.2
2017-11-16T03:31:22.999Z,12.0
2017-11-16T03:32:24.672Z,11.9
2017-11-16T03:33:26.282Z,13.2
2017-11-16T03:34:27.891Z,13.1
2017-11-16T03:35:29.503Z,11.3
2017-11-16T03:36:31.113Z,12.5
2017-11-16T03:37:32.724Z,12.3
2017-11-16T03:38:34.337Z,12.0
2017-11-16T03:39:35.953Z,11.4
2017-11-16T03:40:37.564Z,12.4
2017-11-16T03:41:39.177Z,12.7
2017-11-16T03:42:41.057Z,13.6
2017-11-16T03:43:42.638Z,11.4
2017-11-16T03:44:44.248Z,16.1
2017-11-16T03:45:45.862Z,11.4
2017-11-16T03:46:47.532Z,14.9
2017-11-16T03:47:49.129Z,12.4
2017-11-16T03:48:50.741Z,14.4
2017-11-16T03:49:52.352Z,12.4
2017-11-16T03:50:54.084Z,15.1
2017-11-16T03:51:55.673Z,14.2
2017-11-16T03:52:57.287Z,12.1
2017-11-16T03:53:58.959Z,13.2
2017-11-16T03:55:00.570Z,13.3
2017-11-16T03:56:02.185Z,14.3
2017-11-16T03:57:03.798Z,10.5
2017-11-16T03:58:05.409Z,13.3
2017-11-16T03:59:07.020Z,13.5
2017-11-16T04:00:08.632Z,13.0
2017-11-16T04:01:10.245Z,16.6
2017-11-16T04:02:11.855Z,11.5
2017-11-16T04:03:13.468Z,13.1
2017-11-16T04:04:15.085Z,12.2
2017-11-16T04:05:16.693Z,11.5
2017-11-16T04:06:18.309Z,14.2
2017-11-16T04:07:19.919Z,14.0
2017-11-16T04:08:21.531Z,13.4
2017-11-16T04:09:23.143Z,14.3
2017-11-16T04:10:24.756Z,12.7
2017-11-16T04:11:26.370Z,12.4
2017-11-16T04:12:27.983Z,15.2
2017-11-16T04:13:29.595Z,12.2
2017-11-16T04:14:31.207Z,11.2
2017-11-16T04:15:32.820Z,12.6
2017-11-16T04:16:34.435Z,14.5
2017-11-16T04:17:36.052Z,11.1
2017-11-16T04:18:37.666Z,13.1
2017-11-16T04:19:39.279Z,18.4
2017-11-16T04:20:41.001Z,13.9
2017-11-16T04:21:42.597Z,14.6
2017-11-16T04:22:44.212Z,13.3
2017-11-16T04:23:45.825Z,14.9
2017-11-16T04:24:47.437Z,12.7
2017-11-16T04:25:49.051Z,16.3
2017-11-16T04:26:50.681Z,14.1
2017-11-16T04:27:52.295Z,15.7
2017-11-16T04:28:53.910Z,19.2
2017-11-16T04:29:55.523Z,13.5
2017-11-16T04:30:57.187Z,15.3
2017-11-16T04:31:58.781Z,15.9
2017-11-16T04:33:00.393Z,14.8
2017-11-16T04:34:02.007Z,16.5
2017-11-16T04:35:03.621Z,12.7
2017-11-16T04:36:05.250Z,15.2
2017-11-16T04:37:06.866Z,15.9
2017-11-16T04:38:08.596Z,14.1
2017-11-16T04:39:10.201Z,17.4
2017-11-16T04:40:11.855Z,14.4
2017-11-16T04:41:13.464Z,15.4
2017-11-16T04:42:15.081Z,15.2
2017-11-16T04:43:16.692Z,15.0
2017-11-16T04:44:18.327Z,15.1
2017-11-16T04:45:19.956Z,14.7
2017-11-16T04:46:21.565Z,15.2
2017-11-16T04:47:23.175Z,18.4
2017-11-16T04:48:24.799Z,15.6
2017-11-16T04:49:26.411Z,15.4
2017-11-16T04:50:28.029Z,15.7
2017-11-16T04:51:29.643Z,15.9
2017-11-16T04:52:31.253Z,16.2
2017-11-16T04:53:32.864Z,17.1
2017-11-16T04:54:34.475Z,13.5
2017-11-16T04:55:36.109Z,15.6
2017-11-16T04:56:37.726Z,15.1
2017-11-16T04:57:39.348Z,16.6
2017-11-16T04:58:41.049Z,16.1
2017-11-16T04:59:43.035Z,17.6
2017-11-16T05:00:44.637Z,17.9
2017-11-16T05:01:46.244Z,17.8
2017-11-16T05:02:48.071Z,15.2
2017-11-16T05:03:49.648Z,16.7
2017-11-16T05:04:51.262Z,16.6
2017-11-16T05:05:52.875Z,14.1
2017-11-16T05:06:54.486Z,16.8
2017-11-16T05:07:56.099Z,14.9
2017-11-16T05:08:57.711Z,16.7
2017-11-16T05:09:59.324Z,16.0
2017-11-16T05:11:00.982Z,18.8
2017-11-16T05:12:02.759Z,17.9
2017-11-16T05:13:04.417Z,15.8
2017-11-16T05:14:06.009Z,18.5
2017-11-16T05:15:07.713Z,18.5
2017-11-16T05:16:09.466Z,16.0
2017-11-16T05:17:11.085Z,16.8
2017-11-16T05:18:12.697Z,17.6
2017-11-16T05:19:14.314Z,17.5
2017-11-16T05:20:15.921Z,18.2
2017-11-16T05:21:17.549Z,17.9
2017-11-16T05:22:19.160Z,18.7
2017-11-16T05:23:20.844Z,18.7
2017-11-16T05:24:22.457Z,19.0
2017-11-16T05:25:24.073Z,19.4
2017-11-16T05:26:25.684Z,18.7
2017-11-16T05:27:27.296Z,17.4
2017-11-16T05:28:28.912Z,16.9
2017-11-16T05:29:30.523Z,16.4
2017-11-16T05:30:32.135Z,19.2
2017-11-16T05:31:33.746Z,18.0
2017-11-16T05:32:35.367Z,15.2
2017-11-16T05:33:36.995Z,18.6
2017-11-16T05:34:38.592Z,16.6
2017-11-16T05:35:40.204Z,20.0
2017-11-16T05:36:41.848Z,17.8
2017-11-16T05:37:43.466Z,18.3
2017-11-16T05:38:45.080Z,18.2
2017-11-16T05:39:47.913Z,18.9
2017-11-16T05:40:50.473Z,18.6
2017-11-16T05:41:52.091Z,17.9
2017-11-16T05:42:53.697Z,17.3
2017-11-16T05:43:55.309Z,19.3
2017-11-16T05:44:57.245Z,22.0
2017-11-16T05:45:58.857Z,18.5
2017-11-16T05:47:00.470Z,19.7
2017-11-16T05:48:02.209Z,17.4
2017-11-16T05:49:03.897Z,17.4
2017-11-16T05:50:05.501Z,17.0
2017-11-16T05:51:07.151Z,18.1
2017-11-16T05:52:08.811Z,17.5
2017-11-16T05:53:10.597Z,17.5
2017-11-16T05:54:12.197Z,16.6
2017-11-16T05:55:13.822Z,17.8
2017-11-16T05:56:15.436Z,17.9
2017-11-16T05:57:17.049Z,19.2
2017-11-16T05:58:18.662Z,16.3
2017-11-16T05:59:20.269Z,19.6
2017-11-16T06:00:21.885Z,17.9
2017-11-16T06:01:23.502Z,16.3
2017-11-16T06:02:25.115Z,16.5
2017-11-16T06:03:26.734Z,18.5
2017-11-16T06:04:28.343Z,17.0
2017-11-16T06:05:29.955Z,17.8
2017-11-16T06:06:31.566Z,18.5
2017-11-16T06:07:33.175Z,16.6
2017-11-16T06:08:34.872Z,20.2
2017-11-16T06:09:36.486Z,16.7
2017-11-16T06:10:38.095Z,17.4
2017-11-16T06:11:39.708Z,18.0
2017-11-16T06:12:41.321Z,19.8
2017-11-16T06:13:42.944Z,18.2
2017-11-16T06:14:44.543Z,18.8
2017-11-16T06:15:46.171Z,20.1
2017-11-16T06:16:47.786Z,18.3
2017-11-16T06:17:49.399Z,19.5
2017-11-16T06:18:51.008Z,17.2
2017-11-16T06:19:52.619Z,17.9
2017-11-16T06:20:54.230Z,19.2
2017-11-16T06:21:55.841Z,20.6
2017-11-16T06:22:57.455Z,18.3
2017-11-16T06:23:59.069Z,19.8
2017-11-16T06:25:00.679Z,21.2
2017-11-16T06:26:02.288Z,17.5
2017-11-16T06:27:03.902Z,19.5
2017-11-16T06:28:05.510Z,19.6
2017-11-16T06:29:07.388Z,17.4
2017-11-16T06:30:08.977Z,20.2
2017-11-16T06:31:10.587Z,18.8
2017-11-16T06:32:12.205Z,17.7
2017-11-16T06:33:13.960Z,22.2
2017-11-16T06:34:15.579Z,18.5
2017-11-16T06:35:17.177Z,19.4
2017-11-16T06:36:18.790Z,20.1
2017-11-16T06:37:20.407Z,21.1
2017-11-16T06:38:22.022Z,20.8
2017-11-16T06:39:23.635Z,22.0
2017-11-16T06:40:25.246Z,21.5
2017-11-16T06:41:26.871Z,20.9
2017-11-16T06:42:28.469Z,22.8
2017-11-16T06:43:30.084Z,19.2
2017-11-16T06:44:31.699Z,20.4
2017-11-16T06:45:33.313Z,23.2
2017-11-16T06:46:34.928Z,22.2
2017-11-16T06:47:36.551Z,20.7
2017-11-16T06:48:38.146Z,23.2
2017-11-16T06:49:39.761Z,22.4
2017-11-16T06:50:41.375Z,23.8
2017-11-16T06:51:42.990Z,22.1
2017-11-16T06:52:44.607Z,20.5
2017-11-16T06:53:46.220Z,22.7
2017-11-16T06:54:47.849Z,23.6
2017-11-16T06:55:49.459Z,23.7
2017-11-16T06:56:51.071Z,24.0
2017-11-16T06:57:52.686Z,21.8
2017-11-16T06:58:54.299Z,21.0
2017-11-16T06:59:55.922Z,23.9
2017-11-16T07:00:57.528Z,21.1
2017-11-16T07:01:59.165Z,24.0
2017-11-16T07:03:00.768Z,21.9
2017-11-16T07:04:02.380Z,21.1
2017-11-16T07:05:03.996Z,23.2
2017-11-16T07:06:05.609Z,22.6
2017-11-16T07:07:07.223Z,21.7
2017-11-16T07:08:08.870Z,22.5
2017-11-16T07:09:10.481Z,22.9
2017-11-16T07:10:12.093Z,23.8
2017-11-16T07:11:13.711Z,24.1
2017-11-16T07:12:15.329Z,22.4
2017-11-16T07:13:16.938Z,21.9
2017-11-16T07:14:18.556Z,20.1
2017-11-16T07:15:20.275Z,24.7
2017-11-16T07:16:21.978Z,23.2
2017-11-16T07:17:23.607Z,22.8
2017-11-16T07:18:25.648Z,26.5
2017-11-16T07:19:27.284Z,21.1
2017-11-16T07:20:28.970Z,23.3
2017-11-16T07:21:30.647Z,23.1
2017-11-16T07:22:32.259Z,22.0
2017-11-16T07:23:33.899Z,25.2
2017-11-16T07:24:35.567Z,26.1
2017-11-16T07:25:37.250Z,24.8
2017-11-16T07:26:38.923Z,24.6
2017-11-16T07:27:40.540Z,24.1
2017-11-16T07:28:42.154Z,23.4
2017-11-16T07:29:43.959Z,23.0
2017-11-16T07:30:45.650Z,25.1
2017-11-16T07:31:47.282Z,23.0
2017-11-16T07:32:48.957Z,27.0
2017-11-16T07:33:51.000Z,27.7
2017-11-16T07:34:52.682Z,25.3
2017-11-16T07:35:54.810Z,26.2
2017-11-16T07:36:56.483Z,25.5
2017-11-16T07:37:58.189Z,30.1
2017-11-16T07:39:00.285Z,22.9
2017-11-16T07:40:01.938Z,26.9
2017-11-16T07:41:03.600Z,24.3
2017-11-16T07:42:05.280Z,25.2
2017-11-16T07:43:06.897Z,25.5
2017-11-16T07:44:08.521Z,26.0
2017-11-16T07:45:10.200Z,28.4
2017-11-16T07:46:11.968Z,23.6
2017-11-16T07:47:14.117Z,27.7
2017-11-16T07:48:16.134Z,21.2
2017-11-16T07:49:18.206Z,26.3
2017-11-16T07:50:19.876Z,25.2
2017-11-16T07:51:21.554Z,27.4
2017-11-16T07:52:23.179Z,26.8
2017-11-16T07:53:25.329Z,26.4
2017-11-16T07:54:27.086Z,27.6
2017-11-16T07:55:28.771Z,28.5
2017-11-16T07:56:30.863Z,26.2
2017-11-16T07:57:32.851Z,26.2
2017-11-16T07:58:34.585Z,26.9
2017-11-16T07:59:36.567Z,25.7
2017-11-16T08:00:38.601Z,25.1
2017-11-16T08:01:40.601Z,24.8
2017-11-16T08:02:42.267Z,28.9
2017-11-16T08:03:44.287Z,29.6
2017-11-16T08:04:45.960Z,24.3
2017-11-16T08:05:47.634Z,29.3
2017-11-16T08:06:49.538Z,27.6
2017-11-16T08:07:51.172Z,26.5
2017-11-16T08:08:52.784Z,30.4
2017-11-16T08:09:54.415Z,25.1
2017-11-16T08:10:56.387Z,32.4
2017-11-16T08:11:58.074Z,28.5
2017-11-16T08:13:00.072Z,26.3
2017-11-16T08:14:01.727Z,27.7
2017-11-16T08:15:03.744Z,28.0
2017-11-16T08:16:05.419Z,27.3
2017-11-16T08:17:07.077Z,28.6
2017-11-16T08:18:08.697Z,29.3
2017-11-16T08:19:10.781Z,32.8
2017-11-16T08:20:12.510Z,29.0
2017-11-16T08:21:14.201Z,28.4
2017-11-16T08:22:15.871Z,27.6
2017-11-16T08:23:17.549Z,25.9
2017-11-16T08:24:19.277Z,28.3
2017-11-16T08:25:20.889Z,26.9
2017-11-16T08:26:22.547Z,28.5
2017-11-16T08:27:24.190Z,27.1
2017-11-16T08:28:25.902Z,28.1
2017-11-16T08:29:27.582Z,30.2
2017-11-16T08:30:29.295Z,30.0
2017-11-16T08:31:30.912Z,31.6
2017-11-16T08:32:32.612Z,30.0
2017-11-16T08:33:34.307Z,28.0
2017-11-16T08:34:35.970Z,30.4
2017-11-16T08:35:37.939Z,26.9
2017-11-16T08:36:40.131Z,26.6
2017-11-16T08:37:42.171Z,28.8
2017-11-16T08:38:43.826Z,26.3
2017-11-16T08:39:45.438Z,27.0
2017-11-16T08:40:47.131Z,27.5
2017-11-16T08:41:48.756Z,27.9
2017-11-16T08:42:50.376Z,28.7
2017-11-16T08:43:51.994Z,28.8
2017-11-16T08:44:53.663Z,27.5
2017-11-16T08:45:55.368Z,30.1
2017-11-16T08:46:57.089Z,32.4
2017-11-16T08:47:59.190Z,26.5
2017-11-16T08:49:01.236Z,28.6
2017-11-16T08:50:03.286Z,30.0
2017-11-16T08:51:05.472Z,32.0
2017-11-16T08:52:07.569Z,29.6
2017-11-16T08:53:09.333Z,31.0
2017-11-16T08:54:10.964Z,32.3
2017-11-16T08:55:12.597Z,29.0
2017-11-16T08:56:14.251Z,28.0
2017-11-16T08:57:15.887Z,28.7
2017-11-16T08:58:17.523Z,32.3
2017-11-16T08:59:20.018Z,30.3
2017-11-16T09:00:21.700Z,29.4
2017-11-16T09:01:23.332Z,27.5
2017-11-16T09:02:25.037Z,27.7
2017-11-16T09:03:26.723Z,29.9
2017-11-16T09:04:28.866Z,33.0
2017-11-16T09:05:30.907Z,29.8
2017-11-16T09:06:33.035Z,34.3
2017-11-16T09:07:35.121Z,29.0
2017-11-16T09:08:36.846Z,30.9
2017-11-16T09:09:38.469Z,29.0
2017-11-16T09:10:40.548Z,29.5
2017-11-16T09:11:42.562Z,31.1
2017-11-16T09:12:44.313Z,32.2
2017-11-16T09:13:46.028Z,28.8
2017-11-16T09:14:47.655Z,30.0
2017-11-16T09:15:49.513Z,30.5
2017-11-16T09:16:51.564Z,31.9
2017-11-16T09:17:53.260Z,28.8
2017-11-16T09:18:54.883Z,29.9
2017-11-16T09:19:56.973Z,32.4
2017-11-16T09:20:58.705Z,32.1
2017-11-16T09:22:00.419Z,30.2
2017-11-16T09:23:02.089Z,30.5
2017-11-16T09:24:04.171Z,28.8
2017-11-16T09:25:06.212Z,31.0
2017-11-16T09:26:08.256Z,29.3
2017-11-16T09:27:10.295Z,30.4
2017-11-16T09:28:12.328Z,29.8
2017-11-16T09:29:14.034Z,30.4
2017-11-16T09:30:15.731Z,31.1
2017-11-16T09:31:17.479Z,29.0
2017-11-16T09:32:19.183Z,34.2
2017-11-16T09:33:21.194Z,29.2
2017-11-16T09:34:22.853Z,29.2
2017-11-16T09:35:24.878Z,26.2
2017-11-16T09:36:26.959Z,30.1
2017-11-16T09:37:28.675Z,32.0
2017-11-16T09:38:30.345Z,28.4
2017-11-16T09:39:31.964Z,30.6
2017-11-16T09:40:33.658Z,26.7
2017-11-16T09:41:35.709Z,29.6
2017-11-16T09:42:37.755Z,28.4
2017-11-16T09:43:39.375Z,29.0
2017-11-16T09:44:41.073Z,29.0
2017-11-16T09:45:42.774Z,31.9
2017-11-16T09:46:44.441Z,29.4
2017-11-16T09:47:46.133Z,29.7
2017-11-16T09:48:47.802Z,28.8
2017-11-16T09:49:49.654Z,29.4
2017-11-16T09:50:51.375Z,29.7
2017-11-16T09:51:52.989Z,30.6
2017-11-16T09:52:55.098Z,30.7
2017-11-16T09:53:56.982Z,29.7
2017-11-16T09:54:59.110Z,30.0
2017-11-16T09:56:00.775Z,29.6
2017-11-16T09:57:02.464Z,28.6
2017-11-16T09:58:04.590Z,29.3
2017-11-16T09:59:06.244Z,28.1
2017-11-16T10:00:07.879Z,28.5
2017-11-16T10:01:09.601Z,32.7
2017-11-16T10:02:11.227Z,29.1
2017-11-16T10:03:12.875Z,29.3
2017-11-16T10:04:14.530Z,30.1
2017-11-16T10:05:16.151Z,28.7
2017-11-16T10:06:18.185Z,28.3
2017-11-16T10:07:19.879Z,27.7
2017-11-16T10:08:21.551Z,30.2
2017-11-16T10:09:23.679Z,26.8
2017-11-16T10:10:25.854Z,26.3
2017-11-16T10:11:27.498Z,29.9
2017-11-16T10:12:29.151Z,26.4
2017-11-16T10:13:30.842Z,27.7
2017-11-16T10:14:32.484Z,27.2
2017-11-16T10:15:34.124Z,28.7
2017-11-16T10:16:35.761Z,24.5
2017-11-16T10:17:37.517Z,24.7
2017-11-16T10:18:39.139Z,29.5
2017-11-16T10:19:40.750Z,29.8
2017-11-16T10:20:42.426Z,25.4
2017-11-16T10:21:44.075Z,24.3
2017-11-16T10:22:45.823Z,25.2
2017-11-16T10:23:47.495Z,28.3
2017-11-16T10:24:49.122Z,27.2
2017-11-16T10:25:50.805Z,26.1
2017-11-16T10:26:52.448Z,26.4
2017-11-16T10:27:54.147Z,26.4
2017-11-16T10:28:55.765Z,26.5
2017-11-16T10:29:57.389Z,26.1
2017-11-16T10:30:59.012Z,26.6
2017-11-16T10:32:00.682Z,28.4
2017-11-16T10:33:02.299Z,26.3
2017-11-16T10:34:04.150Z,27.5
2017-11-16T10:35:06.241Z,27.6
2017-11-16T10:36:07.947Z,25.3
2017-11-16T10:37:09.650Z,25.2
2017-11-16T10:38:11.730Z,24.3
2017-11-16T10:39:13.438Z,24.3
2017-11-16T10:40:15.076Z,25.0
2017-11-16T10:41:17.293Z,22.9
2017-11-16T10:42:18.958Z,23.4
2017-11-16T10:43:20.670Z,22.5
2017-11-16T10:44:22.407Z,26.1
2017-11-16T10:45:24.471Z,23.5
2017-11-16T10:46:26.225Z,22.7
2017-11-16T10:47:27.944Z,21.4
2017-11-16T10:48:29.604Z,25.2
2017-11-16T10:49:31.246Z,22.9
2017-11-16T10:50:32.908Z,24.2
2017-11-16T10:51:34.603Z,23.1
2017-11-16T10:52:36.206Z,27.5
2017-11-16T10:53:38.126Z,24.8
2017-11-16T10:54:39.765Z,20.5
2017-11-16T10:55:41.928Z,24.2
2017-11-16T10:56:44.103Z,21.5
2017-11-16T10:57:46.154Z,23.6
2017-11-16T10:58:48.113Z,21.8
2017-11-16T10:59:49.926Z,23.9
2017-11-16T11:00:51.576Z,22.5
2017-11-16T11:01:53.197Z,22.2
2017-11-16T11:02:54.849Z,21.7
2017-11-16T11:03:56.526Z,23.0
2017-11-16T11:04:58.621Z,22.7
2017-11-16T11:06:00.310Z,23.3
2017-11-16T11:07:01.984Z,22.8
2017-11-16T11:08:04.160Z,24.1
2017-11-16T11:09:05.815Z,21.1
2017-11-16T11:10:07.464Z,23.4
2017-11-16T11:11:09.121Z,23.4
2017-11-16T11:12:10.731Z,23.0
2017-11-16T11:13:12.365Z,25.1
2017-11-16T11:14:14.491Z,24.8
2017-11-16T11:15:16.192Z,24.5
2017-11-16T11:16:17.873Z,23.8
2017-11-16T11:17:19.553Z,25.7
2017-11-16T11:18:21.228Z,27.1
2017-11-16T11:19:22.865Z,26.1
2017-11-16T11:20:24.552Z,23.0
2017-11-16T11:21:26.281Z,23.9
2017-11-16T11:22:28.379Z,21.9
2017-11-16T11:23:30.029Z,26.2
2017-11-16T11:24:32.191Z,25.8
2017-11-16T11:25:33.851Z,22.3
2017-11-16T11:26:35.542Z,22.7
2017-11-16T11:27:37.613Z,21.1
2017-11-16T11:28:39.784Z,23.0
2017-11-16T11:29:41.486Z,20.1
2017-11-16T11:30:43.193Z,23.6
2017-11-16T11:31:44.872Z,22.1
2017-11-16T11:32:46.518Z,21.6
2017-11-16T11:33:48.234Z,21.7
2017-11-16T11:34:50.401Z,20.4
2017-11-16T11:35:52.058Z,22.6
2017-11-16T11:36:54.216Z,21.2
2017-11-16T11:37:55.845Z,21.9
2017-11-16T11:38:57.558Z,22.1
2017-11-16T11:39:59.247Z,20.0
2017-11-16T11:41:00.924Z,24.4
2017-11-16T11:42:02.545Z,24.0
2017-11-16T11:43:04.252Z,22.6
2017-11-16T11:44:06.450Z,22.6
2017-11-16T11:45:08.714Z,21.5
2017-11-16T11:46:10.775Z,24.1
2017-11-16T11:47:12.848Z,19.6
2017-11-16T11:48:14.531Z,20.9
2017-11-16T11:49:16.153Z,22.4
2017-11-16T11:50:17.839Z,22.2
2017-11-16T11:51:19.463Z,19.3
2017-11-16T11:52:21.081Z,20.0
2017-11-16T11:53:22.700Z,21.5
2017-11-16T11:54:24.321Z,20.6
2017-11-16T11:55:26.455Z,18.5
2017-11-16T11:56:28.101Z,19.4
2017-11-16T11:57:29.751Z,22.2
2017-11-16T11:58:31.372Z,21.2
2017-11-16T11:59:33.054Z,20.3
2017-11-16T12:00:34.759Z,19.1
2017-11-16T12:01:36.437Z,19.4
2017-11-16T12:02:38.199Z,19.9
2017-11-16T12:03:39.874Z,17.6
2017-11-16T12:04:41.531Z,17.8
2017-11-16T12:05:43.218Z,19.4
2017-11-16T12:06:44.939Z,16.7
2017-11-16T12:07:46.599Z,17.4
2017-11-16T12:08:48.227Z,16.9
2017-11-16T12:09:50.329Z,19.3
2017-11-16T12:10:52.455Z,18.0
2017-11-16T12:11:54.127Z,17.4
2017-11-16T12:12:55.773Z,20.3
2017-11-16T12:13:57.374Z,16.8
2017-11-16T12:14:59.007Z,18.7
2017-11-16T12:16:00.628Z,18.6
2017-11-16T12:17:02.307Z,19.2
2017-11-16T12:18:04.232Z,20.1
2017-11-16T12:19:05.855Z,21.1
2017-11-16T12:20:07.525Z,19.2
2017-11-16T12:21:09.657Z,19.5
2017-11-16T12:22:11.260Z,21.7
2017-11-16T12:23:13.223Z,20.0
2017-11-16T12:24:14.907Z,19.3
2017-11-16T12:25:16.576Z,20.4
2017-11-16T12:26:18.200Z,18.3
2017-11-16T12:27:20.228Z,19.3
2017-11-16T12:28:21.856Z,20.2
2017-11-16T12:29:23.513Z,18.3
2017-11-16T12:30:25.192Z,19.1
2017-11-16T12:31:26.809Z,20.6
2017-11-16T12:32:28.645Z,18.0
2017-11-16T12:33:30.350Z,19.9
2017-11-16T12:34:32.467Z,20.3
2017-11-16T12:35:34.051Z,20.0
2017-11-16T12:36:35.684Z,20.4
2017-11-16T12:37:37.759Z,20.4
2017-11-16T12:38:39.411Z,20.5
2017-11-16T12:39:41.097Z,21.8
2017-11-16T12:40:43.217Z,27.9
2017-11-16T12:41:44.905Z,21.0
2017-11-16T12:42:46.586Z,20.5
2017-11-16T12:43:48.247Z,20.0
2017-11-16T12:44:50.220Z,19.3
2017-11-16T12:45:51.872Z,20.4
2017-11-16T12:46:53.554Z,21.6
2017-11-16T12:47:55.175Z,19.5
2017-11-16T12:48:56.816Z,21.2
2017-11-16T12:49:58.489Z,25.2
2017-11-16T12:51:00.425Z,19.6
2017-11-16T12:52:02.066Z,19.0
2017-11-16T12:53:03.758Z,18.1
2017-11-16T12:54:05.450Z,18.8
2017-11-16T12:55:07.487Z,23.1
2017-11-16T12:56:09.104Z,20.6
2017-11-16T12:57:11.227Z,23.3
2017-11-16T12:58:12.812Z,24.1
2017-11-16T12:59:14.498Z,20.8
2017-11-16T13:00:16.196Z,22.6
2017-11-16T13:01:17.817Z,21.5
2017-11-16T13:02:19.455Z,25.0
2017-11-16T13:03:21.120Z,23.7
2017-11-16T13:04:23.200Z,20.8
2017-11-16T13:05:25.278Z,20.7
2017-11-16T13:06:26.990Z,21.6
2017-11-16T13:07:28.733Z,22.8
2017-11-16T13:08:30.860Z,19.7
2017-11-16T13:09:32.525Z,24.3
2017-11-16T13:10:34.239Z,24.5
2017-11-16T13:11:35.852Z,22.3
2017-11-16T13:12:37.541Z,22.6
2017-11-16T13:13:39.230Z,23.5
2017-11-16T13:14:41.246Z,23.0
2017-11-16T13:15:42.934Z,24.0
2017-11-16T13:16:44.978Z,22.1
2017-11-16T13:17:46.646Z,23.3
2017-11-16T13:18:48.340Z,22.5
2017-11-16T13:19:50.078Z,24.1
2017-11-16T13:20:51.742Z,27.5
2017-11-16T13:21:53.435Z,27.1
2017-11-16T13:22:55.052Z,24.1
2017-11-16T13:23:56.742Z,22.0
2017-11-16T13:24:58.386Z,25.6
2017-11-16T13:26:00.052Z,23.5
2017-11-16T13:27:01.941Z,23.2
2017-11-16T13:28:03.645Z,22.8
2017-11-16T13:29:05.308Z,26.3
2017-11-16T13:30:06.920Z,23.8
2017-11-16T13:31:08.623Z,23.6
2017-11-16T13:32:10.278Z,22.0
2017-11-16T13:33:11.915Z,26.1
2017-11-16T13:34:13.814Z,23.3
2017-11-16T13:35:15.936Z,25.0
2017-11-16T13:36:17.567Z,23.8
2017-11-16T13:37:19.470Z,29.8
2017-11-16T13:38:21.685Z,23.3
2017-11-16T13:39:23.291Z,26.6
2017-11-16T13:40:24.949Z,25.0
2017-11-16T13:41:26.584Z,26.2
2017-11-16T13:42:28.274Z,25.6
2017-11-16T13:43:30.374Z,23.0
2017-11-16T13:44:32.478Z,25.6
2017-11-16T13:45:34.154Z,24.8